Time;durP1;ratioP1;P1;durP2;ratioP2;P2;SDS_P1;SDS_P2;PMS_P1;PMS_P2;Temp;Humidity;BMP_temperature;BMP_pressure;BME280_temperature;BME280_humidity;BME280_pressure;Samples;Min_cycle;Max_cycle;Signal;HPM_P1;HPM_P2
2023/08/24 00:00:03;;;;;;;;;;;;;;;28.25;51.27;99499.00;2499618;27;19937;-73
2023/08/24 00:00:13;;;;;;;;;;;;;;;28.25;50.84;99499.00;351573;27;1550;-73
2023/08/24 00:00:23;;;;;;;;;;;;;;;28.26;51.18;99504.19;351983;28;1447;-74
2023/08/24 00:00:33;;;;;;;;;;;;;;;28.25;51.21;99499.84;351727;28;1257;-74
2023/08/24 00:00:44;;;;;;;;;;;;;;;28.24;50.65;99497.31;350356;28;1392;-74
2023/08/24 00:00:54;;;;;;;;;;;;;;;28.25;50.65;99499.00;350423;28;880;-74
2023/08/24 00:01:04;;;;;;;;;;;;;;;28.25;50.73;99493.63;347590;28;1325;-74
2023/08/24 00:01:16;;;;;;;;;;;;;;;28.25;50.49;99501.69;347534;28;875;-74
2023/08/24 00:01:26;;;;;;;;;;;;;;;28.26;50.63;99504.19;348059;28;1669;-74
2023/08/24 00:01:36;;;;;;;;;;;;;;;28.25;51.18;99493.63;347543;28;1227;-74
2023/08/24 00:01:47;;;;;;;;;;;;;;;28.25;50.87;99504.38;346852;28;1463;-74
2023/08/24 00:01:57;;;;;;;;;;;;;;;28.25;50.64;99499.00;349002;28;872;-74
2023/08/24 00:02:07;;;;;;;;;;;;;;;28.25;51.12;99493.63;350107;28;1289;-75
2023/08/24 00:02:17;;;;;;;;;;;;;;;28.25;50.37;99505.22;349072;28;1191;-75
2023/08/24 00:02:28;;;;;;;;;;;;;;;28.25;50.68;99493.63;349786;28;1437;-75
2023/08/24 00:02:38;;;;;;;;;;;;;;;28.24;50.65;99498.16;348999;28;1334;-76
2023/08/24 00:02:48;;;;;;;;;;;;;;;28.23;51.04;99501.03;350438;28;1422;-75
2023/08/24 00:02:58;;;;;;;;;;;;;;;28.23;50.66;99501.03;350410;28;1197;-76
2023/08/24 00:03:08;;;;;;;;;;;;;;;28.23;50.71;99501.03;351039;28;1696;-75
2023/08/24 00:03:21;;;;;;;;;;;;;;;28.24;50.80;99497.31;351797;28;890;-75
2023/08/24 00:03:32;;;;;;;;;;;;;;;28.23;51.09;99496.47;351738;28;1314;-75
2023/08/24 00:03:48;;;;;;;;;;;;;;;28.24;50.55;99500.84;350239;28;1678;-75
2023/08/24 00:03:58;;;;;;;;;;;;;;;28.24;51.06;99500.84;350363;28;1243;-75
2023/08/24 00:04:10;;;;;;;;;;;;;;;28.24;50.76;99497.31;348649;28;1243;-75
2023/08/24 00:04:20;;;;;;;;;;;;;;;28.24;51.11;99497.31;347698;28;1286;-75
2023/08/24 00:04:30;;;;;;;;;;;;;;;28.23;50.53;99495.66;348780;28;1389;-75
2023/08/24 00:04:41;;;;;;;;;;;;;;;28.23;50.71;99495.66;348995;28;986;-75
2023/08/24 00:04:51;;;;;;;;;;;;;;;28.22;50.66;99496.66;348319;28;1730;-74
2023/08/24 00:05:02;;;;;;;;;;;;;;;28.21;50.47;99497.66;348733;28;1414;-74
2023/08/24 00:05:12;;;;;;;;;;;;;;;28.20;50.89;99496.81;347454;28;1341;-74
2023/08/24 00:05:23;;;;;;;;;;;;;;;28.20;50.91;99501.34;347670;28;891;-74
2023/08/24 00:05:34;;;;;;;;;;;;;;;28.20;50.88;99498.66;346220;28;1026;-74
2023/08/24 00:05:45;;;;;;;;;;;;;;;28.19;50.54;99492.44;346130;28;1360;-74
2023/08/24 00:05:55;;;;;;;;;;;;;;;28.20;50.68;99494.13;345973;28;1232;-74
2023/08/24 00:06:06;;;;;;;;;;;;;;;28.20;50.91;99495.97;347441;28;1300;-74
2023/08/24 00:06:16;;;;;;;;;;;;;;;28.20;50.59;99490.59;344829;28;1271;-74
2023/08/24 00:06:27;;;;;;;;;;;;;;;28.19;50.54;99494.28;345400;28;1050;-74
2023/08/24 00:06:38;;;;;;;;;;;;;;;28.17;50.42;99487.22;345011;28;1478;-74
2023/08/24 00:06:48;;;;;;;;;;;;;;;28.19;50.82;99494.28;343648;28;1760;-74
2023/08/24 00:06:58;;;;;;;;;;;;;;;28.19;50.46;99495.13;343474;28;873;-75
2023/08/24 00:07:08;;;;;;;;;;;;;;;28.20;50.93;99490.59;343438;28;877;-76
2023/08/24 00:07:18;;;;;;;;;;;;;;;28.19;50.36;99491.59;342125;28;1298;-74
2023/08/24 00:07:29;;;;;;;;;;;;;;;28.20;50.98;99491.41;341690;28;1388;-75
2023/08/24 00:07:39;;;;;;;;;;;;;;;28.17;50.40;99487.22;341714;28;965;-75
2023/08/24 00:07:51;;;;;;;;;;;;;;;28.17;50.49;99489.94;340938;29;929;-75
2023/08/24 00:08:01;;;;;;;;;;;;;;;28.17;50.49;99492.63;338148;29;1484;-75
2023/08/24 00:08:11;;;;;;;;;;;;;;;28.17;50.98;99491.78;339260;29;2016;-73
2023/08/24 00:08:22;;;;;;;;;;;;;;;28.18;50.83;99493.44;340936;28;1657;-73
2023/08/24 00:08:32;;;;;;;;;;;;;;;28.19;50.73;99494.28;339369;29;881;-73
2023/08/24 00:08:43;;;;;;;;;;;;;;;28.19;50.93;99496.97;340203;28;1608;-75
2023/08/24 00:08:53;;;;;;;;;;;;;;;28.17;50.73;99491.78;338595;29;1914;-75
2023/08/24 00:09:05;;;;;;;;;;;;;;;28.17;50.99;99489.09;336915;29;870;-74
2023/08/24 00:09:15;;;;;;;;;;;;;;;28.16;50.96;99488.25;335568;29;1734;-74
2023/08/24 00:09:26;;;;;;;;;;;;;;;28.16;50.49;99490.94;335440;29;1727;-74
2023/08/24 00:09:37;;;;;;;;;;;;;;;28.16;50.54;99493.63;335708;29;3414;-74
2023/08/24 00:09:47;;;;;;;;;;;;;;;28.16;50.93;99496.31;334462;29;1118;-74
2023/08/24 00:09:58;;;;;;;;;;;;;;;28.16;50.96;99495.47;333914;29;1501;-74
2023/08/24 00:10:08;;;;;;;;;;;;;;;28.14;51.22;99490.31;334152;29;1843;-74
2023/08/24 00:10:18;;;;;;;;;;;;;;;28.15;50.80;99496.53;335761;29;831;-74
2023/08/24 00:10:29;;;;;;;;;;;;;;;28.13;51.02;99495.88;332573;29;1393;-74
2023/08/24 00:10:39;;;;;;;;;;;;;;;28.13;51.19;99495.88;331852;29;2132;-74
2023/08/24 00:10:49;;;;;;;;;;;;;;;28.13;50.83;99496.72;330615;29;1025;-74
2023/08/24 00:11:00;;;;;;;;;;;;;;;28.13;50.82;99495.88;332586;29;2075;-74
2023/08/24 00:11:14;;;;;;;;;;;;;;;28.12;51.12;99494.19;332084;29;1558;-74
2023/08/24 00:11:25;;;;;;;;;;;;;;;28.06;51.18;99489.53;331037;29;937;-74
2023/08/24 00:11:35;;;;;;;;;;;;;;;28.03;50.97;99493.41;332302;29;1519;-74
2023/08/24 00:11:45;;;;;;;;;;;;;;;28.03;51.34;99498.78;331437;29;1615;-74
2023/08/24 00:11:55;;;;;;;;;;;;;;;28.02;51.26;99489.03;329499;29;1884;-74
2023/08/24 00:12:06;;;;;;;;;;;;;;;28.02;51.38;99497.09;326875;30;887;-74
2023/08/24 00:12:16;;;;;;;;;;;;;;;28.01;51.29;99492.75;324520;30;1488;-74
2023/08/24 00:12:27;;;;;;;;;;;;;;;27.97;51.54;99488.72;323907;30;2249;-74
2023/08/24 00:12:37;;;;;;;;;;;;;;;28.00;51.40;99496.44;323069;30;2331;-74
2023/08/24 00:12:47;;;;;;;;;;;;;;;27.99;51.17;99492.09;324508;30;1223;-74
2023/08/24 00:12:57;;;;;;;;;;;;;;;27.98;51.08;99493.09;324654;30;2439;-74
2023/08/24 00:13:07;;;;;;;;;;;;;;;27.99;51.50;99492.09;323194;30;2518;-74
2023/08/24 00:13:18;;;;;;;;;;;;;;;27.99;51.41;99492.09;323882;30;1748;-74
2023/08/24 00:13:28;;;;;;;;;;;;;;;28.00;51.46;99498.31;323043;30;1885;-74
2023/08/24 00:13:39;;;;;;;;;;;;;;;28.00;51.40;99493.75;323388;30;1649;-74
2023/08/24 00:13:49;;;;;;;;;;;;;;;28.01;51.06;99492.75;323168;30;1321;-74
2023/08/24 00:13:59;;;;;;;;;;;;;;;28.01;51.15;99498.13;323261;30;2104;-74
2023/08/24 00:14:09;;;;;;;;;;;;;;;28.02;51.52;99497.09;321980;30;2660;-74
2023/08/24 00:14:20;;;;;;;;;;;;;;;28.02;51.15;99491.72;322193;30;1449;-74
2023/08/24 00:14:30;;;;;;;;;;;;;;;28.03;51.50;99496.09;322508;30;2892;-74
2023/08/24 00:14:40;;;;;;;;;;;;;;;28.04;51.53;99491.56;321763;30;3199;-74
2023/08/24 00:14:50;;;;;;;;;;;;;;;28.05;51.24;99494.06;319229;30;1286;-74
2023/08/24 00:15:00;;;;;;;;;;;;;;;28.04;51.65;99492.38;316436;31;3259;-74
2023/08/24 00:15:11;;;;;;;;;;;;;;;28.04;51.51;99497.78;312899;31;3463;-74
2023/08/24 00:15:21;;;;;;;;;;;;;;;28.04;51.10;99492.38;311843;31;1268;-74
2023/08/24 00:15:31;;;;;;;;;;;;;;;28.03;51.05;99490.72;315290;31;1009;-75
2023/08/24 00:15:42;;;;;;;;;;;;;;;28.01;51.54;99495.44;314213;31;2592;-75
2023/08/24 00:15:53;;;;;;;;;;;;;;;28.02;51.10;99493.59;313574;31;1761;-74
2023/08/24 00:16:04;;;;;;;;;;;;;;;28.02;51.52;99493.59;314091;31;834;-74
2023/08/24 00:16:17;;;;;;;;;;;;;;;28.02;51.70;99493.59;310429;31;2647;-74
2023/08/24 00:16:27;;;;;;;;;;;;;;;28.03;51.56;99496.09;307877;31;3669;-74
2023/08/24 00:16:38;;;;;;;;;;;;;;;28.03;51.66;99496.09;306009;31;4209;-74
2023/08/24 00:16:49;;;;;;;;;;;;;;;28.04;51.05;99497.78;305114;32;1669;-74
2023/08/24 00:16:59;;;;;;;;;;;;;;;28.03;51.10;99500.63;308101;31;4581;-74
2023/08/24 00:17:09;;;;;;;;;;;;;;;28.03;51.13;99496.09;305619;32;4631;-75
2023/08/24 00:17:19;;;;;;;;;;;;;;;28.04;51.18;99492.38;302259;32;1112;-75
2023/08/24 00:17:30;;;;;;;;;;;;;;;28.05;51.26;99496.75;305121;32;4389;-75
2023/08/24 00:17:40;;;;;;;;;;;;;;;28.06;51.20;99498.44;302648;32;4439;-75
2023/08/24 00:17:50;;;;;;;;;;;;;;;28.06;51.20;99490.38;301140;32;1214;-75
2023/08/24 00:18:00;;;;;;;;;;;;;;;28.06;51.23;99494.91;301919;32;3455;-75
2023/08/24 00:18:11;;;;;;;;;;;;;;;28.00;50.89;99491.06;301329;32;2915;-75
2023/08/24 00:18:22;;;;;;;;;;;;;;;27.93;51.16;99492.78;301161;32;1435;-75
2023/08/24 00:18:32;;;;;;;;;;;;;;;27.89;51.37;99496.84;294605;33;1738;-75
2023/08/24 00:18:43;;;;;;;;;;;;;;;27.89;51.15;99499.53;291354;33;5581;-75
2023/08/24 00:18:53;;;;;;;;;;;;;;;27.89;50.99;99498.69;290544;33;7410;-75
2023/08/24 00:19:03;;;;;;;;;;;;;;;27.89;51.41;99498.69;296073;33;1328;-75
2023/08/24 00:19:13;;;;;;;;;;;;;;;27.89;51.51;99494.16;293653;33;6442;-75
2023/08/24 00:19:24;;;;;;;;;;;;;;;27.91;51.05;99499.34;294469;33;5958;-75
2023/08/24 00:19:34;;;;;;;;;;;;;;;27.91;50.94;99497.50;293185;33;1500;-75
2023/08/24 00:19:46;;;;;;;;;;;;;;;27.92;50.99;99488.41;291055;33;6356;-75
2023/08/24 00:19:56;;;;;;;;;;;;;;;27.91;51.26;99489.44;291603;33;6084;-75
2023/08/24 00:20:10;;;;;;;;;;;;;;;27.92;51.55;99496.50;290928;33;5015;-75
2023/08/24 00:20:20;;;;;;;;;;;;;;;27.93;51.63;99495.47;289398;34;1327;-75
2023/08/24 00:20:32;;;;;;;;;;;;;;;27.92;51.11;99504.56;289064;34;4420;-75
2023/08/24 00:20:42;;;;;;;;;;;;;;;27.92;51.47;99488.41;288898;34;6425;-75
2023/08/24 00:20:53;;;;;;;;;;;;;;;27.93;51.04;99495.47;289101;34;8136;-75
2023/08/24 00:21:03;;;;;;;;;;;;;;;27.93;51.19;99490.09;290293;34;903;-75
2023/08/24 00:21:13;;;;;;;;;;;;;;;27.95;51.08;99492.63;288489;34;9041;-75
2023/08/24 00:21:23;;;;;;;;;;;;;;;27.95;51.11;99492.63;287725;34;9033;-75
2023/08/24 00:21:34;;;;;;;;;;;;;;;27.95;51.01;99488.06;286431;34;1201;-75
2023/08/24 00:21:44;;;;;;;;;;;;;;;27.95;51.24;99498.84;282636;34;9441;-75
2023/08/24 00:21:54;;;;;;;;;;;;;;;27.96;51.43;99492.44;280379;34;8637;-75
2023/08/24 00:22:04;;;;;;;;;;;;;;;27.98;50.88;99492.25;282836;35;762;-75
2023/08/24 00:22:14;;;;;;;;;;;;;;;27.99;51.37;99488.56;278190;35;8923;-75
2023/08/24 00:22:25;;;;;;;;;;;;;;;27.98;51.02;99490.41;276094;35;8117;-75
2023/08/24 00:22:35;;;;;;;;;;;;;;;27.99;51.39;99486.69;277144;35;1670;-75
2023/08/24 00:24:44;;;;;;;;;;;;;;;28.01;51.33;99491.91;2502935;27;19937;-75
2023/08/24 00:24:54;;;;;;;;;;;;;;;28.01;51.43;99487.38;356025;27;1335;-75
2023/08/24 00:25:08;;;;;;;;;;;;;;;28.02;51.02;99491.72;354496;27;1374;-75
2023/08/24 00:25:18;;;;;;;;;;;;;;;28.01;50.98;99492.75;348747;28;1747;-74
2023/08/24 00:25:29;;;;;;;;;;;;;;;28.01;51.49;99492.75;347763;28;654;-74
2023/08/24 00:25:40;;;;;;;;;;;;;;;27.99;51.13;99492.09;347648;28;912;-74
2023/08/24 00:25:51;;;;;;;;;;;;;;;28.00;51.66;99487.53;347572;28;1430;-74
2023/08/24 00:26:01;;;;;;;;;;;;;;;28.01;51.29;99491.91;347731;28;1122;-74
2023/08/24 00:26:11;;;;;;;;;;;;;;;28.00;51.53;99487.53;348061;28;1367;-74
2023/08/24 00:26:21;;;;;;;;;;;;;;;28.00;51.65;99490.22;350777;28;1341;-74
2023/08/24 00:26:32;;;;;;;;;;;;;;;27.99;51.26;99491.25;351837;28;1141;-76
2023/08/24 00:26:42;;;;;;;;;;;;;;;27.97;51.16;99485.19;350134;28;1190;-75
2023/08/24 00:26:52;;;;;;;;;;;;;;;27.95;51.16;99488.06;351739;28;1396;-75
2023/08/24 00:27:02;;;;;;;;;;;;;;;27.93;51.42;99484.72;352884;28;1415;-75
2023/08/24 00:27:13;;;;;;;;;;;;;;;27.93;51.12;99484.72;352355;28;1784;-75
2023/08/24 00:27:23;;;;;;;;;;;;;;;27.92;51.18;99487.59;353319;28;1148;-75
2023/08/24 00:27:35;;;;;;;;;;;;;;;27.91;51.22;99489.44;353094;28;1513;-75
2023/08/24 00:27:45;;;;;;;;;;;;;;;27.89;51.69;99488.78;351674;28;1414;-75
2023/08/24 00:27:55;;;;;;;;;;;;;;;27.88;51.34;99492.47;351876;28;1095;-75
2023/08/24 00:28:05;;;;;;;;;;;;;;;27.88;51.51;99492.47;350246;28;875;-75
2023/08/24 00:28:15;;;;;;;;;;;;;;;27.87;52.21;99490.81;349045;28;1197;-75
2023/08/24 00:28:26;;;;;;;;;;;;;;;27.87;52.14;99490.81;347407;28;1443;-75
2023/08/24 00:28:36;;;;;;;;;;;;;;;27.86;51.94;99489.13;347532;28;1240;-75
2023/08/24 00:28:46;;;;;;;;;;;;;;;27.87;52.14;99485.41;348621;28;1822;-75
2023/08/24 00:28:56;;;;;;;;;;;;;;;27.87;51.66;99488.09;346091;28;1204;-75
2023/08/24 00:29:07;;;;;;;;;;;;;;;27.88;51.47;99489.78;347078;28;923;-75
2023/08/24 00:29:17;;;;;;;;;;;;;;;27.89;51.80;99488.78;346198;28;1331;-75
2023/08/24 00:29:27;;;;;;;;;;;;;;;27.91;51.61;99492.13;347151;28;1371;-75
2023/08/24 00:29:37;;;;;;;;;;;;;;;27.91;51.84;99486.75;347696;28;1146;-75
2023/08/24 00:29:47;;;;;;;;;;;;;;;27.92;51.77;99485.72;347661;28;1218;-75
2023/08/24 00:29:58;;;;;;;;;;;;;;;27.93;51.79;99484.72;347563;28;883;-75
2023/08/24 00:30:08;;;;;;;;;;;;;;;27.93;51.75;99489.25;346866;28;836;-75
2023/08/24 00:30:18;;;;;;;;;;;;;;;27.95;51.89;99482.69;344223;28;1618;-75
2023/08/24 00:30:28;;;;;;;;;;;;;;;27.94;51.38;99486.38;340807;28;1376;-75
2023/08/24 00:30:39;;;;;;;;;;;;;;;27.95;51.70;99488.06;341474;28;1172;-75
2023/08/24 00:30:49;;;;;;;;;;;;;;;27.96;51.79;99481.66;342298;28;1064;-75
2023/08/24 00:31:02;;;;;;;;;;;;;;;27.97;51.32;99491.41;343394;28;1505;-75
2023/08/24 00:31:12;;;;;;;;;;;;;;;27.95;51.68;99485.38;344684;28;1166;-75
2023/08/24 00:31:23;;;;;;;;;;;;;;;27.95;51.72;99489.91;344810;28;1253;-75
2023/08/24 00:31:33;;;;;;;;;;;;;;;27.96;51.85;99492.44;343529;28;769;-75
2023/08/24 00:31:43;;;;;;;;;;;;;;;27.95;51.89;99488.06;346266;28;895;-75
2023/08/24 00:31:53;;;;;;;;;;;;;;;27.96;51.86;99488.91;346340;28;1294;-75
2023/08/24 00:32:04;;;;;;;;;;;;;;;27.96;51.82;99489.75;345342;28;1592;-74
2023/08/24 00:32:14;;;;;;;;;;;;;;;27.95;51.66;99485.38;346003;28;852;-74
2023/08/24 00:32:24;;;;;;;;;;;;;;;27.96;51.63;99491.59;344016;28;1239;-75
2023/08/24 00:32:34;;;;;;;;;;;;;;;27.96;51.80;99480.84;344359;28;1726;-74
2023/08/24 00:32:45;;;;;;;;;;;;;;;27.95;51.38;99482.69;342263;28;884;-73
2023/08/24 00:32:55;;;;;;;;;;;;;;;27.92;51.87;99490.28;340263;28;1407;-74
2023/08/24 00:33:05;;;;;;;;;;;;;;;27.91;51.85;99486.75;338237;29;1180;-74
2023/08/24 00:33:15;;;;;;;;;;;;;;;27.92;51.31;99484.88;338295;29;877;-74
2023/08/24 00:33:26;;;;;;;;;;;;;;;27.91;51.47;99484.06;339039;29;1663;-74
2023/08/24 00:33:36;;;;;;;;;;;;;;;27.89;51.81;99486.09;339086;29;1977;-74
2023/08/24 00:33:46;;;;;;;;;;;;;;;27.88;51.70;99484.41;338182;29;1492;-75
2023/08/24 00:33:56;;;;;;;;;;;;;;;27.89;51.95;99483.38;337890;29;1594;-74
2023/08/24 00:34:07;;;;;;;;;;;;;;;27.89;51.83;99483.38;338092;29;884;-74
2023/08/24 00:34:17;;;;;;;;;;;;;;;27.89;51.67;99483.38;336138;29;953;-74
2023/08/24 00:34:27;;;;;;;;;;;;;;;27.91;51.60;99483.22;336562;29;1250;-74
2023/08/24 00:34:37;;;;;;;;;;;;;;;27.91;51.50;99485.91;337735;29;1401;-74
2023/08/24 00:34:47;;;;;;;;;;;;;;;27.91;51.68;99486.75;339548;29;786;-74
2023/08/24 00:34:58;;;;;;;;;;;;;;;27.90;51.85;99495.00;340390;29;1850;-74
2023/08/24 00:35:09;;;;;;;;;;;;;;;27.89;51.98;99488.78;339044;29;2009;-74
2023/08/24 00:35:19;;;;;;;;;;;;;;;27.89;51.89;99486.09;336628;29;1987;-75
2023/08/24 00:35:29;;;;;;;;;;;;;;;27.87;51.51;99485.41;334711;29;1726;-75
2023/08/24 00:35:40;;;;;;;;;;;;;;;27.87;52.06;99490.81;336876;29;2598;-75
2023/08/24 00:35:51;;;;;;;;;;;;;;;27.85;51.78;99495.53;338096;29;1636;-73
2023/08/24 00:36:01;;;;;;;;;;;;;;;27.84;52.27;99496.53;338854;29;1604;-72
2023/08/24 00:36:11;;;;;;;;;;;;;;;27.75;52.29;99493.03;336288;29;1216;-72
2023/08/24 00:36:23;;;;;;;;;;;;;;;27.70;52.26;99487.38;334695;29;1194;-72
2023/08/24 00:36:33;;;;;;;;;;;;;;;27.68;52.08;99491.25;333052;29;954;-73
2023/08/24 00:36:43;;;;;;;;;;;;;;;27.67;52.21;99489.56;330747;29;933;-74
2023/08/24 00:36:54;;;;;;;;;;;;;;;27.68;52.34;99491.25;326436;30;2185;-74
2023/08/24 00:37:04;;;;;;;;;;;;;;;27.67;52.59;99492.28;325747;29;2357;-74
2023/08/24 00:37:14;;;;;;;;;;;;;;;27.67;52.46;99497.66;332665;29;1914;-74
2023/08/24 00:37:25;;;;;;;;;;;;;;;27.67;52.42;99490.41;332709;29;2472;-74
2023/08/24 00:37:35;;;;;;;;;;;;;;;27.68;52.53;99497.47;328915;30;2408;-74
2023/08/24 00:37:46;;;;;;;;;;;;;;;27.70;52.69;99494.59;326827;30;1206;-74
2023/08/24 00:37:56;;;;;;;;;;;;;;;27.70;52.64;99492.75;329425;29;2695;-74
2023/08/24 00:38:06;;;;;;;;;;;;;;;27.71;52.76;99494.44;328432;29;1778;-75
2023/08/24 00:38:16;;;;;;;;;;;;;;;27.71;52.54;99497.13;329408;29;1451;-74
2023/08/24 00:38:26;;;;;;;;;;;;;;;27.73;52.35;99494.22;327814;29;1267;-73
2023/08/24 00:38:37;;;;;;;;;;;;;;;27.73;52.53;99496.91;327066;30;2090;-73
2023/08/24 00:38:50;;;;;;;;;;;;;;;27.73;52.10;99495.06;325845;30;943;-73
2023/08/24 00:39:01;;;;;;;;;;;;;;;27.74;52.42;99498.59;326957;30;911;-73
2023/08/24 00:39:11;;;;;;;;;;;;;;;27.76;52.14;99488.50;324366;30;2829;-75
2023/08/24 00:39:22;;;;;;;;;;;;;;;27.74;52.41;99494.06;323692;30;3427;-74
2023/08/24 00:39:32;;;;;;;;;;;;;;;27.70;52.01;99489.22;325831;30;793;-74
2023/08/24 00:39:43;;;;;;;;;;;;;;;27.69;52.55;99498.31;324834;30;3351;-74
2023/08/24 00:39:53;;;;;;;;;;;;;;;27.69;52.11;99492.94;321856;30;3223;-75
2023/08/24 00:40:10;;;;;;;;;;;;;;;27.69;52.41;99495.63;319733;30;1241;-74
2023/08/24 00:40:20;;;;;;;;;;;;;;;27.70;52.57;99490.06;319182;30;2565;-74
2023/08/24 00:40:30;;;;;;;;;;;;;;;27.71;52.35;99490.91;316193;31;1232;-74
2023/08/24 00:40:44;;;;;;;;;;;;;;;27.71;52.12;99490.91;315708;31;2068;-74
2023/08/24 00:40:55;;;;;;;;;;;;;;;27.72;52.38;99493.41;314074;31;3006;-74
2023/08/24 00:41:05;;;;;;;;;;;;;;;27.73;52.10;99495.06;309755;31;3656;-74
2023/08/24 00:41:15;;;;;;;;;;;;;;;27.75;52.38;99494.91;307494;32;1426;-74
2023/08/24 00:41:26;;;;;;;;;;;;;;;27.76;51.99;99493.88;312828;31;4017;-75
2023/08/24 00:41:36;;;;;;;;;;;;;;;27.77;51.96;99492.88;314353;31;4691;-74
2023/08/24 00:41:46;;;;;;;;;;;;;;;27.76;51.82;99491.19;314123;31;952;-74
2023/08/24 00:41:56;;;;;;;;;;;;;;;27.76;52.49;99493.88;310639;31;4597;-74
2023/08/24 00:42:07;;;;;;;;;;;;;;;27.77;52.25;99495.56;310096;31;4434;-75
2023/08/24 00:42:17;;;;;;;;;;;;;;;27.76;52.62;99499.25;310352;31;1616;-74
2023/08/24 00:42:28;;;;;;;;;;;;;;;27.74;52.27;99490.53;306836;32;4871;-74
2023/08/24 00:42:41;;;;;;;;;;;;;;;27.73;52.18;99494.22;306555;32;3439;-74
2023/08/24 00:42:52;;;;;;;;;;;;;;;27.72;52.70;99492.59;307036;31;3124;-74
2023/08/24 00:43:03;;;;;;;;;;;;;;;27.71;52.53;99490.91;308625;32;878;-74
2023/08/24 00:43:13;;;;;;;;;;;;;;;27.72;52.26;99492.59;307735;32;4337;-74
2023/08/24 00:43:24;;;;;;;;;;;;;;;27.72;52.22;99497.97;305902;32;5200;-75
2023/08/24 00:43:35;;;;;;;;;;;;;;;27.73;52.48;99494.22;305430;32;5956;-74
2023/08/24 00:43:46;;;;;;;;;;;;;;;27.72;52.25;99488.03;304380;32;829;-74
2023/08/24 00:43:57;;;;;;;;;;;;;;;27.74;52.26;99491.38;301639;32;6563;-74
2023/08/24 00:44:07;;;;;;;;;;;;;;;27.75;52.67;99497.59;299618;32;6710;-73
2023/08/24 00:44:18;;;;;;;;;;;;;;;27.75;52.27;99498.41;297140;33;1343;-73
2023/08/24 00:44:28;;;;;;;;;;;;;;;27.76;52.32;99496.56;295095;33;5534;-73
2023/08/24 00:44:38;;;;;;;;;;;;;;;27.76;52.48;99493.88;295039;33;6704;-73
2023/08/24 00:44:49;;;;;;;;;;;;;;;27.77;52.48;99492.88;295136;33;842;-73
2023/08/24 00:44:59;;;;;;;;;;;;;;;27.76;52.32;99489.34;292270;33;1173;-73
2023/08/24 00:45:10;;;;;;;;;;;;;;;27.76;52.37;99489.34;290341;33;4848;-74
2023/08/24 00:45:21;;;;;;;;;;;;;;;27.77;52.45;99496.41;288176;34;6772;-74
2023/08/24 00:45:32;;;;;;;;;;;;;;;27.74;52.68;99491.38;288385;34;934;-74
2023/08/24 00:45:43;;;;;;;;;;;;;;;27.74;52.28;99491.38;285304;34;7448;-74
2023/08/24 00:45:56;;;;;;;;;;;;;;;27.73;52.94;99484.31;285833;34;8151;-74
2023/08/24 00:46:06;;;;;;;;;;;;;;;27.73;52.52;99496.91;284872;34;9005;-74
2023/08/24 00:46:17;;;;;;;;;;;;;;;27.72;52.51;99492.59;284639;34;1234;-74
2023/08/24 00:46:27;;;;;;;;;;;;;;;27.73;52.73;99488.84;282131;34;9889;-74
2023/08/24 00:46:38;;;;;;;;;;;;;;;27.73;52.94;99491.53;281459;34;7765;-74
2023/08/24 00:46:48;;;;;;;;;;;;;;;27.74;52.63;99491.38;281407;35;1499;-75
2023/08/24 00:46:58;;;;;;;;;;;;;;;27.74;53.17;99491.38;281445;35;9336;-74
2023/08/24 00:47:09;;;;;;;;;;;;;;;27.75;52.76;99492.19;278622;35;8114;-74
2023/08/24 00:49:27;;;;;;;;;;;;;;;27.69;53.70;99488.38;2491978;27;19937;-74
2023/08/24 00:49:37;;;;;;;;;;;;;;;27.69;54.03;99492.94;354653;27;874;-74
2023/08/24 00:49:47;;;;;;;;;;;;;;;27.69;53.79;99488.38;352662;28;1315;-74
2023/08/24 00:49:59;;;;;;;;;;;;;;;27.68;53.95;99485.88;351691;28;1198;-74
2023/08/24 00:50:09;;;;;;;;;;;;;;;27.68;53.98;99491.25;347528;28;840;-73
2023/08/24 00:50:19;;;;;;;;;;;;;;;27.69;53.55;99487.56;347502;28;1231;-75
2023/08/24 00:50:30;;;;;;;;;;;;;;;27.69;53.56;99495.63;347585;28;1203;-75
2023/08/24 00:50:40;;;;;;;;;;;;;;;27.69;53.64;99492.94;346640;28;1517;-75
2023/08/24 00:50:50;;;;;;;;;;;;;;;27.70;53.86;99486.53;349535;28;1437;-75
2023/08/24 00:51:00;;;;;;;;;;;;;;;27.70;53.80;99490.06;347687;28;809;-75
2023/08/24 00:51:11;;;;;;;;;;;;;;;27.71;53.92;99491.75;346142;28;785;-75
2023/08/24 00:51:21;;;;;;;;;;;;;;;27.71;53.78;99488.22;344738;28;1292;-75
2023/08/24 00:51:31;;;;;;;;;;;;;;;27.71;53.49;99485.53;344836;28;849;-75
2023/08/24 00:51:41;;;;;;;;;;;;;;;27.71;53.60;99488.22;344053;28;1379;-75
2023/08/24 00:51:51;;;;;;;;;;;;;;;27.69;53.86;99487.56;343804;28;1275;-75
2023/08/24 00:52:02;;;;;;;;;;;;;;;27.69;54.12;99490.25;344744;28;1212;-75
2023/08/24 00:52:12;;;;;;;;;;;;;;;27.68;54.02;99484.03;343309;28;1485;-75
2023/08/24 00:52:24;;;;;;;;;;;;;;;27.66;54.32;99483.38;344696;28;1590;-75
2023/08/24 00:52:35;;;;;;;;;;;;;;;27.67;54.26;99489.56;345079;28;1589;-75
2023/08/24 00:52:45;;;;;;;;;;;;;;;27.65;54.56;99486.22;344879;28;888;-75
2023/08/24 00:52:56;;;;;;;;;;;;;;;27.64;54.72;99485.38;343609;28;883;-75
2023/08/24 00:53:06;;;;;;;;;;;;;;;27.64;54.40;99489.94;344500;28;1263;-75
2023/08/24 00:53:18;;;;;;;;;;;;;;;27.64;54.43;99489.94;347112;28;1272;-74
2023/08/24 00:53:29;;;;;;;;;;;;;;;27.64;54.43;99487.25;347621;28;834;-74
2023/08/24 00:53:39;;;;;;;;;;;;;;;27.63;54.80;99490.94;347444;28;1070;-74
2023/08/24 00:53:50;;;;;;;;;;;;;;;27.60;54.91;99481.38;347545;28;1261;-74
2023/08/24 00:54:00;;;;;;;;;;;;;;;27.57;54.91;99488.91;348840;28;1801;-74
2023/08/24 00:54:10;;;;;;;;;;;;;;;27.55;55.20;99485.56;348654;28;1571;-74
2023/08/24 00:54:20;;;;;;;;;;;;;;;27.53;55.35;99488.41;349083;28;1083;-74
2023/08/24 00:54:30;;;;;;;;;;;;;;;27.53;55.24;99487.59;348962;28;1021;-74
2023/08/24 00:54:41;;;;;;;;;;;;;;;27.55;55.43;99490.94;347759;28;793;-74
2023/08/24 00:54:51;;;;;;;;;;;;;;;27.53;55.31;99487.59;348955;28;1217;-74
2023/08/24 00:55:01;;;;;;;;;;;;;;;27.55;55.32;99493.63;344712;28;1700;-74
2023/08/24 00:55:12;;;;;;;;;;;;;;;27.55;55.39;99485.56;346001;28;860;-74
2023/08/24 00:55:22;;;;;;;;;;;;;;;27.56;55.60;99488.06;344964;28;1972;-74
2023/08/24 00:55:33;;;;;;;;;;;;;;;27.57;55.33;99491.59;342972;28;1609;-74
2023/08/24 00:55:43;;;;;;;;;;;;;;;27.57;55.78;99486.22;342183;28;1298;-73
2023/08/24 00:55:53;;;;;;;;;;;;;;;27.56;55.72;99487.25;345222;28;1704;-74
2023/08/24 00:56:03;;;;;;;;;;;;;;;27.57;55.56;99494.28;346516;28;1145;-74
2023/08/24 00:56:13;;;;;;;;;;;;;;;27.57;55.63;99488.91;342018;28;1304;-74
2023/08/24 00:56:24;;;;;;;;;;;;;;;27.57;55.55;99483.53;343391;28;2118;-74
2023/08/24 00:56:34;;;;;;;;;;;;;;;27.57;55.44;99478.16;342164;28;1221;-75
2023/08/24 00:56:44;;;;;;;;;;;;;;;27.58;55.58;99490.59;342208;28;824;-74
2023/08/24 00:56:55;;;;;;;;;;;;;;;27.59;55.51;99486.91;344859;28;877;-74
2023/08/24 00:57:05;;;;;;;;;;;;;;;27.60;55.07;99488.59;345647;28;1390;-73
2023/08/24 00:57:16;;;;;;;;;;;;;;;27.59;55.39;99489.63;343352;28;1375;-73
2023/08/24 00:57:26;;;;;;;;;;;;;;;27.60;54.94;99488.59;343503;28;1181;-74
2023/08/24 00:57:37;;;;;;;;;;;;;;;27.60;55.42;99485.91;343387;28;1871;-74
2023/08/24 00:57:47;;;;;;;;;;;;;;;27.61;55.21;99487.59;338198;29;1407;-74
2023/08/24 00:57:57;;;;;;;;;;;;;;;27.62;55.42;99486.56;338262;29;1242;-73
2023/08/24 00:58:09;;;;;;;;;;;;;;;27.62;55.01;99486.56;341298;28;1468;-73
2023/08/24 00:58:20;;;;;;;;;;;;;;;27.59;55.28;99486.91;340638;29;1596;-73
2023/08/24 00:58:31;;;;;;;;;;;;;;;27.59;55.27;99484.22;338206;29;1392;-73
2023/08/24 00:58:41;;;;;;;;;;;;;;;27.57;54.81;99487.06;338254;29;1410;-73
2023/08/24 00:58:52;;;;;;;;;;;;;;;27.58;55.06;99490.59;338165;29;806;-73
2023/08/24 00:59:02;;;;;;;;;;;;;;;27.58;55.15;99487.91;336552;29;1184;-74
2023/08/24 00:59:12;;;;;;;;;;;;;;;27.58;55.00;99490.59;334221;29;862;-74
2023/08/24 00:59:22;;;;;;;;;;;;;;;27.57;54.48;99489.75;334615;29;1466;-74
2023/08/24 00:59:33;;;;;;;;;;;;;;;27.57;54.69;99484.38;336701;28;1960;-74
2023/08/24 00:59:43;;;;;;;;;;;;;;;27.57;54.38;99486.22;340522;29;2087;-74
2023/08/24 00:59:54;;;;;;;;;;;;;;;27.56;54.69;99482.69;339870;29;1972;-74
2023/08/24 01:00:10;;;;;;;;;;;;;;;27.56;54.49;99490.75;337358;29;2030;-74
2023/08/24 01:00:20;;;;;;;;;;;;;;;27.56;54.48;99482.69;332449;29;2146;-74
2023/08/24 01:00:30;;;;;;;;;;;;;;;27.55;54.40;99496.31;330590;29;811;-74
2023/08/24 01:00:41;;;;;;;;;;;;;;;27.53;54.39;99482.22;335396;29;1733;-74